sensor_id;sensor_type;location;lat;lon;timestamp;temperature;humidity
20881;DHT22;10600;53.096;8.802;2022-11-15T00:00:39;8.10;99.90
20881;DHT22;10600;53.096;8.802;2022-11-15T00:01:40;8.10;99.90
20881;DHT22;10600;53.096;8.802;2022-11-15T00:02:41;8.10;99.90
20881;DHT22;10600;53.096;8.802;2022-11-15T00:03:41;8.00;99.90
20881;DHT22;10600;53.096;8.802;2022-11-15T00:04:42;8.00;99.90
20881;DHT22;10600;53.096;8.802;2022-11-15T00:05:43;8.00;99.90
20881;DHT22;10600;53.096;8.802;2022-11-15T00:06:43;8.00;99.90
20881;DHT22;10600;53.096;8.802;2022-11-15T00:07:44;8.00;99.90
20881;DHT22;10600;53.096;8.802;2022-11-15T00:08:45;8.00;99.90
20881;DHT22;10600;53.096;8.802;2022-11-15T00:09:45;8.00;99.90
20881;DHT22;10600;53.096;8.802;2022-11-15T00:10:59;8.00;99.90
20881;DHT22;10600;53.096;8.802;2022-11-15T00:12:00;8.00;99.90
20881;DHT22;10600;53.096;8.802;2022-11-15T00:13:08;8.00;99.90
20881;DHT22;10600;53.096;8.802;2022-11-15T00:14:09;8.00;99.90
20881;DHT22;10600;53.096;8.802;2022-11-15T00:15:09;8.00;99.90
20881;DHT22;10600;53.096;8.802;2022-11-15T00:16:10;7.90;99.90
20881;DHT22;10600;53.096;8.802;2022-11-15T00:17:11;7.90;99.90
20881;DHT22;10600;53.096;8.802;2022-11-15T00:18:13;7.90;99.90
20881;DHT22;10600;53.096;8.802;2022-11-15T00:19:14;7.90;99.90
20881;DHT22;10600;53.096;8.802;2022-11-15T00:20:15;7.90;99.90
20881;DHT22;10600;53.096;8.802;2022-11-15T00:21:17;7.90;99.90
20881;DHT22;10600;53.096;8.802;2022-11-15T00:22:18;7.90;99.90
20881;DHT22;10600;53.096;8.802;2022-11-15T00:23:18;7.90;99.90
20881;DHT22;10600;53.096;8.802;2022-11-15T00:24:19;7.80;99.90
20881;DHT22;10600;53.096;8.802;2022-11-15T00:25:20;7.80;99.90
20881;DHT22;10600;53.096;8.802;2022-11-15T00:26:20;7.80;99.90
20881;DHT22;10600;53.096;8.802;2022-11-15T00:27:21;7.80;99.90
20881;DHT22;10600;53.096;8.802;2022-11-15T00:28:22;7.80;99.90
20881;DHT22;10600;53.096;8.802;2022-11-15T00:29:22;7.80;99.90
20881;DHT22;10600;53.096;8.802;2022-11-15T00:30:23;7.80;99.90
20881;DHT22;10600;53.096;8.802;2022-11-15T00:31:24;7.80;99.90
20881;DHT22;10600;53.096;8.802;2022-11-15T00:32:24;7.80;99.90
20881;DHT22;10600;53.096;8.802;2022-11-15T00:33:25;7.80;99.90
20881;DHT22;10600;53.096;8.802;2022-11-15T00:34:26;7.70;99.90
20881;DHT22;10600;53.096;8.802;2022-11-15T00:35:26;7.70;99.90
20881;DHT22;10600;53.096;8.802;2022-11-15T00:36:27;7.70;99.90
20881;DHT22;10600;53.096;8.802;2022-11-15T00:37:28;7.70;99.90
20881;DHT22;10600;53.096;8.802;2022-11-15T00:38:34;7.70;99.90
20881;DHT22;10600;53.096;8.802;2022-11-15T00:39:35;7.70;99.90
20881;DHT22;10600;53.096;8.802;2022-11-15T00:40:36;7.70;99.90
20881;DHT22;10600;53.096;8.802;2022-11-15T00:41:36;7.70;99.90
20881;DHT22;10600;53.096;8.802;2022-11-15T00:42:37;7.70;99.90
20881;DHT22;10600;53.096;8.802;2022-11-15T00:43:38;7.70;99.90
20881;DHT22;10600;53.096;8.802;2022-11-15T00:44:40;7.70;99.90
20881;DHT22;10600;53.096;8.802;2022-11-15T00:45:40;7.70;99.90
20881;DHT22;10600;53.096;8.802;2022-11-15T00:46:41;7.70;99.90
20881;DHT22;10600;53.096;8.802;2022-11-15T00:47:44;7.70;99.90
20881;DHT22;10600;53.096;8.802;2022-11-15T00:48:46;7.70;99.90
20881;DHT22;10600;53.096;8.802;2022-11-15T00:49:46;7.70;99.90
20881;DHT22;10600;53.096;8.802;2022-11-15T00:50:48;7.70;99.90
20881;DHT22;10600;53.096;8.802;2022-11-15T00:51:49;7.70;99.90
20881;DHT22;10600;53.096;8.802;2022-11-15T00:52:50;7.70;99.90
20881;DHT22;10600;53.096;8.802;2022-11-15T00:53:50;7.70;99.90
20881;DHT22;10600;53.096;8.802;2022-11-15T00:54:51;7.60;99.90
20881;DHT22;10600;53.096;8.802;2022-11-15T00:55:52;7.70;99.90
20881;DHT22;10600;53.096;8.802;2022-11-15T00:56:53;7.70;99.90
20881;DHT22;10600;53.096;8.802;2022-11-15T00:57:54;7.60;99.90
20881;DHT22;10600;53.096;8.802;2022-11-15T00:58:54;7.70;99.90
20881;DHT22;10600;53.096;8.802;2022-11-15T00:59:55;7.70;99.90
20881;DHT22;10600;53.096;8.802;2022-11-15T01:00:55;7.60;99.90
20881;DHT22;10600;53.096;8.802;2022-11-15T01:01:56;7.60;99.90
20881;DHT22;10600;53.096;8.802;2022-11-15T01:02:57;7.60;99.90
20881;DHT22;10600;53.096;8.802;2022-11-15T01:03:57;7.60;99.90
20881;DHT22;10600;53.096;8.802;2022-11-15T01:04:58;7.60;99.90
20881;DHT22;10600;53.096;8.802;2022-11-15T01:06:00;7.60;99.90
20881;DHT22;10600;53.096;8.802;2022-11-15T01:07:00;7.60;99.90
20881;DHT22;10600;53.096;8.802;2022-11-15T01:08:01;7.60;99.90
20881;DHT22;10600;53.096;8.802;2022-11-15T01:09:02;7.50;99.90
20881;DHT22;10600;53.096;8.802;2022-11-15T01:10:05;7.60;99.90
20881;DHT22;10600;53.096;8.802;2022-11-15T01:11:08;7.50;99.90
20881;DHT22;10600;53.096;8.802;2022-11-15T01:12:09;7.50;99.90
20881;DHT22;10600;53.096;8.802;2022-11-15T01:13:10;7.50;99.90
20881;DHT22;10600;53.096;8.802;2022-11-15T01:14:11;7.50;99.90
20881;DHT22;10600;53.096;8.802;2022-11-15T01:15:11;7.50;99.90
20881;DHT22;10600;53.096;8.802;2022-11-15T01:16:14;7.50;99.90
20881;DHT22;10600;53.096;8.802;2022-11-15T01:17:16;7.50;99.90
20881;DHT22;10600;53.096;8.802;2022-11-15T01:18:17;7.50;99.90
20881;DHT22;10600;53.096;8.802;2022-11-15T01:19:18;7.40;99.90
20881;DHT22;10600;53.096;8.802;2022-11-15T01:20:18;7.40;99.90
20881;DHT22;10600;53.096;8.802;2022-11-15T01:21:20;7.40;99.90
20881;DHT22;10600;53.096;8.802;2022-11-15T01:22:22;7.30;99.90
20881;DHT22;10600;53.096;8.802;2022-11-15T01:23:23;7.30;99.90
20881;DHT22;10600;53.096;8.802;2022-11-15T01:24:23;7.40;99.90
20881;DHT22;10600;53.096;8.802;2022-11-15T01:25:24;7.30;99.90
20881;DHT22;10600;53.096;8.802;2022-11-15T01:26:25;7.40;99.90
20881;DHT22;10600;53.096;8.802;2022-11-15T01:27:26;7.40;99.90
20881;DHT22;10600;53.096;8.802;2022-11-15T01:28:30;7.40;99.90
20881;DHT22;10600;53.096;8.802;2022-11-15T01:29:31;7.40;99.90
20881;DHT22;10600;53.096;8.802;2022-11-15T01:30:32;7.40;99.90
20881;DHT22;10600;53.096;8.802;2022-11-15T01:31:32;7.40;99.90
20881;DHT22;10600;53.096;8.802;2022-11-15T01:32:33;7.40;99.90
20881;DHT22;10600;53.096;8.802;2022-11-15T01:33:35;7.40;99.90
20881;DHT22;10600;53.096;8.802;2022-11-15T01:34:39;7.30;99.90
20881;DHT22;10600;53.096;8.802;2022-11-15T01:35:39;7.30;99.90
20881;DHT22;10600;53.096;8.802;2022-11-15T01:36:40;7.30;99.90
20881;DHT22;10600;53.096;8.802;2022-11-15T01:37:41;7.30;99.90
20881;DHT22;10600;53.096;8.802;2022-11-15T01:38:42;7.30;99.90
20881;DHT22;10600;53.096;8.802;2022-11-15T01:39:42;7.30;99.90
20881;DHT22;10600;53.096;8.802;2022-11-15T01:40:43;7.30;99.90
20881;DHT22;10600;53.096;8.802;2022-11-15T01:41:44;7.30;99.90
20881;DHT22;10600;53.096;8.802;2022-11-15T01:42:44;7.30;99.90
20881;DHT22;10600;53.096;8.802;2022-11-15T01:43:48;7.30;99.90
20881;DHT22;10600;53.096;8.802;2022-11-15T01:44:50;7.30;99.90
20881;DHT22;10600;53.096;8.802;2022-11-15T01:45:56;7.30;99.90
20881;DHT22;10600;53.096;8.802;2022-11-15T01:47:02;7.30;99.90
20881;DHT22;10600;53.096;8.802;2022-11-15T01:48:03;7.20;99.90
20881;DHT22;10600;53.096;8.802;2022-11-15T01:49:13;7.20;99.90
20881;DHT22;10600;53.096;8.802;2022-11-15T01:50:17;7.30;99.90
20881;DHT22;10600;53.096;8.802;2022-11-15T01:51:20;7.20;99.90
20881;DHT22;10600;53.096;8.802;2022-11-15T01:52:25;7.20;99.90
20881;DHT22;10600;53.096;8.802;2022-11-15T01:53:27;7.20;99.90
20881;DHT22;10600;53.096;8.802;2022-11-15T01:54:29;7.20;99.90
20881;DHT22;10600;53.096;8.802;2022-11-15T01:55:30;7.20;99.90
20881;DHT22;10600;53.096;8.802;2022-11-15T01:56:36;7.20;99.90
20881;DHT22;10600;53.096;8.802;2022-11-15T01:57:39;7.20;99.90
20881;DHT22;10600;53.096;8.802;2022-11-15T01:58:41;7.20;99.90
20881;DHT22;10600;53.096;8.802;2022-11-15T01:59:43;7.20;99.90
20881;DHT22;10600;53.096;8.802;2022-11-15T02:00:45;7.10;99.90
20881;DHT22;10600;53.096;8.802;2022-11-15T02:01:46;7.10;99.90
20881;DHT22;10600;53.096;8.802;2022-11-15T02:02:47;7.10;99.90
20881;DHT22;10600;53.096;8.802;2022-11-15T02:03:57;7.10;99.90
20881;DHT22;10600;53.096;8.802;2022-11-15T02:04:59;7.10;99.90
20881;DHT22;10600;53.096;8.802;2022-11-15T02:06:00;7.20;99.90
20881;DHT22;10600;53.096;8.802;2022-11-15T02:07:03;7.20;99.90
20881;DHT22;10600;53.096;8.802;2022-11-15T02:08:05;7.20;99.90
20881;DHT22;10600;53.096;8.802;2022-11-15T02:09:06;7.20;99.90
20881;DHT22;10600;53.096;8.802;2022-11-15T02:10:16;7.30;99.90
20881;DHT22;10600;53.096;8.802;2022-11-15T02:11:17;7.40;99.90
20881;DHT22;10600;53.096;8.802;2022-11-15T02:12:20;7.40;99.90
20881;DHT22;10600;53.096;8.802;2022-11-15T02:13:21;7.50;99.90
20881;DHT22;10600;53.096;8.802;2022-11-15T02:14:23;7.50;99.90
20881;DHT22;10600;53.096;8.802;2022-11-15T02:15:30;7.50;99.90
20881;DHT22;10600;53.096;8.802;2022-11-15T02:16:48;7.60;99.90
20881;DHT22;10600;53.096;8.802;2022-11-15T02:20:36;7.80;99.90
20881;DHT22;10600;53.096;8.802;2022-11-15T02:34:06;8.20;99.90
20881;DHT22;10600;53.096;8.802;2022-11-15T02:35:34;8.30;99.90
20881;DHT22;10600;53.096;8.802;2022-11-15T02:37:59;8.40;99.90
20881;DHT22;10600;53.096;8.802;2022-11-15T02:39:28;8.40;99.90
20881;DHT22;10600;53.096;8.802;2022-11-15T02:40:38;8.40;99.90
20881;DHT22;10600;53.096;8.802;2022-11-15T02:42:07;8.50;99.90
20881;DHT22;10600;53.096;8.802;2022-11-15T02:43:59;8.50;99.90
20881;DHT22;10600;53.096;8.802;2022-11-15T02:45:05;8.50;99.90
20881;DHT22;10600;53.096;8.802;2022-11-15T02:46:14;8.60;99.90
20881;DHT22;10600;53.096;8.802;2022-11-15T02:47:17;8.60;99.90
20881;DHT22;10600;53.096;8.802;2022-11-15T02:48:21;8.60;99.90
20881;DHT22;10600;53.096;8.802;2022-11-15T02:49:25;8.60;99.90
20881;DHT22;10600;53.096;8.802;2022-11-15T02:50:29;8.60;99.90
20881;DHT22;10600;53.096;8.802;2022-11-15T02:51:30;8.60;99.90
20881;DHT22;10600;53.096;8.802;2022-11-15T02:52:30;8.60;99.90
20881;DHT22;10600;53.096;8.802;2022-11-15T02:53:31;8.60;99.90
20881;DHT22;10600;53.096;8.802;2022-11-15T02:54:33;8.60;99.90
20881;DHT22;10600;53.096;8.802;2022-11-15T02:55:37;8.60;99.90
20881;DHT22;10600;53.096;8.802;2022-11-15T02:56:39;8.60;99.90
20881;DHT22;10600;53.096;8.802;2022-11-15T02:57:52;8.70;99.90
20881;DHT22;10600;53.096;8.802;2022-11-15T03:00:12;8.70;99.90
20881;DHT22;10600;53.096;8.802;2022-11-15T03:02:20;8.80;99.90
20881;DHT22;10600;53.096;8.802;2022-11-15T03:03:47;8.80;99.90
20881;DHT22;10600;53.096;8.802;2022-11-15T03:07:32;8.90;99.90
20881;DHT22;10600;53.096;8.802;2022-11-15T03:11:11;9.00;99.90
20881;DHT22;10600;53.096;8.802;2022-11-15T03:12:36;9.00;99.90
20881;DHT22;10600;53.096;8.802;2022-11-15T03:13:58;9.00;99.90
20881;DHT22;10600;53.096;8.802;2022-11-15T03:15:04;9.00;99.90
20881;DHT22;10600;53.096;8.802;2022-11-15T03:16:15;9.00;99.90
20881;DHT22;10600;53.096;8.802;2022-11-15T03:17:24;9.00;99.90
20881;DHT22;10600;53.096;8.802;2022-11-15T03:18:34;9.00;99.90
20881;DHT22;10600;53.096;8.802;2022-11-15T03:19:56;9.10;99.90
20881;DHT22;10600;53.096;8.802;2022-11-15T03:21:00;9.10;99.90
20881;DHT22;10600;53.096;8.802;2022-11-15T03:22:04;9.10;99.90
20881;DHT22;10600;53.096;8.802;2022-11-15T03:23:09;9.10;99.90
20881;DHT22;10600;53.096;8.802;2022-11-15T03:24:11;9.10;99.90
20881;DHT22;10600;53.096;8.802;2022-11-15T03:25:17;9.10;99.90
20881;DHT22;10600;53.096;8.802;2022-11-15T03:26:21;9.10;99.90
20881;DHT22;10600;53.096;8.802;2022-11-15T03:27:27;9.20;99.90
20881;DHT22;10600;53.096;8.802;2022-11-15T03:28:36;9.20;99.90
20881;DHT22;10600;53.096;8.802;2022-11-15T03:29:39;9.20;99.90
20881;DHT22;10600;53.096;8.802;2022-11-15T03:30:45;9.20;99.90
20881;DHT22;10600;53.096;8.802;2022-11-15T03:31:55;9.20;99.90
20881;DHT22;10600;53.096;8.802;2022-11-15T03:33:00;9.20;99.90
20881;DHT22;10600;53.096;8.802;2022-11-15T03:34:05;9.20;99.90
20881;DHT22;10600;53.096;8.802;2022-11-15T03:35:22;9.20;99.90
20881;DHT22;10600;53.096;8.802;2022-11-15T03:36:24;9.20;99.90
20881;DHT22;10600;53.096;8.802;2022-11-15T03:37:34;9.30;99.90
20881;DHT22;10600;53.096;8.802;2022-11-15T03:38:37;9.30;99.90
20881;DHT22;10600;53.096;8.802;2022-11-15T03:39:38;9.30;99.90
20881;DHT22;10600;53.096;8.802;2022-11-15T03:40:41;9.30;99.90
20881;DHT22;10600;53.096;8.802;2022-11-15T03:42:27;9.30;99.90
20881;DHT22;10600;53.096;8.802;2022-11-15T03:43:50;9.30;99.90
20881;DHT22;10600;53.096;8.802;2022-11-15T03:45:01;9.30;99.90
20881;DHT22;10600;53.096;8.802;2022-11-15T03:46:11;9.30;99.90
20881;DHT22;10600;53.096;8.802;2022-11-15T03:47:20;9.30;99.90
20881;DHT22;10600;53.096;8.802;2022-11-15T03:48:25;9.30;99.90
20881;DHT22;10600;53.096;8.802;2022-11-15T03:49:33;9.30;99.90
20881;DHT22;10600;53.096;8.802;2022-11-15T03:50:34;9.40;99.90
20881;DHT22;10600;53.096;8.802;2022-11-15T03:51:35;9.40;99.90
20881;DHT22;10600;53.096;8.802;2022-11-15T03:52:36;9.30;99.90
20881;DHT22;10600;53.096;8.802;2022-11-15T03:53:37;9.30;99.90
20881;DHT22;10600;53.096;8.802;2022-11-15T03:54:52;9.30;99.90
20881;DHT22;10600;53.096;8.802;2022-11-15T03:55:53;9.30;99.90
20881;DHT22;10600;53.096;8.802;2022-11-15T03:56:53;9.40;99.90
20881;DHT22;10600;53.096;8.802;2022-11-15T03:57:57;9.40;99.90
20881;DHT22;10600;53.096;8.802;2022-11-15T03:58:58;9.40;99.90
20881;DHT22;10600;53.096;8.802;2022-11-15T03:59:59;9.40;99.90
20881;DHT22;10600;53.096;8.802;2022-11-15T04:01:00;9.40;99.90
20881;DHT22;10600;53.096;8.802;2022-11-15T04:02:00;9.40;99.90
20881;DHT22;10600;53.096;8.802;2022-11-15T04:03:01;9.40;99.90
20881;DHT22;10600;53.096;8.802;2022-11-15T04:04:02;9.40;99.90
20881;DHT22;10600;53.096;8.802;2022-11-15T04:05:03;9.40;99.90
20881;DHT22;10600;53.096;8.802;2022-11-15T04:06:04;9.40;99.90
20881;DHT22;10600;53.096;8.802;2022-11-15T04:07:05;9.40;99.90
20881;DHT22;10600;53.096;8.802;2022-11-15T04:08:05;9.40;99.90
20881;DHT22;10600;53.096;8.802;2022-11-15T04:09:09;9.40;99.90
20881;DHT22;10600;53.096;8.802;2022-11-15T04:10:11;9.50;99.90
20881;DHT22;10600;53.096;8.802;2022-11-15T04:11:12;9.40;99.90
20881;DHT22;10600;53.096;8.802;2022-11-15T04:12:12;9.50;99.90
20881;DHT22;10600;53.096;8.802;2022-11-15T04:13:13;9.50;99.90
20881;DHT22;10600;53.096;8.802;2022-11-15T04:14:13;9.50;99.90
20881;DHT22;10600;53.096;8.802;2022-11-15T04:15:20;9.40;99.90
20881;DHT22;10600;53.096;8.802;2022-11-15T04:16:21;9.50;99.90
20881;DHT22;10600;53.096;8.802;2022-11-15T04:17:21;9.50;99.90
20881;DHT22;10600;53.096;8.802;2022-11-15T04:18:22;9.50;99.90
20881;DHT22;10600;53.096;8.802;2022-11-15T04:19:23;9.50;99.90
20881;DHT22;10600;53.096;8.802;2022-11-15T04:20:42;9.50;99.90
20881;DHT22;10600;53.096;8.802;2022-11-15T04:22:01;9.50;99.90
20881;DHT22;10600;53.096;8.802;2022-11-15T04:23:22;9.50;99.90
20881;DHT22;10600;53.096;8.802;2022-11-15T04:24:42;9.50;99.90
20881;DHT22;10600;53.096;8.802;2022-11-15T04:25:43;9.50;99.90
20881;DHT22;10600;53.096;8.802;2022-11-15T04:26:44;9.50;99.90
20881;DHT22;10600;53.096;8.802;2022-11-15T04:27:45;9.50;99.90
20881;DHT22;10600;53.096;8.802;2022-11-15T04:28:45;9.50;99.90
20881;DHT22;10600;53.096;8.802;2022-11-15T04:30:06;9.50;99.90
20881;DHT22;10600;53.096;8.802;2022-11-15T04:31:06;9.50;99.90
20881;DHT22;10600;53.096;8.802;2022-11-15T04:32:07;9.50;99.90
20881;DHT22;10600;53.096;8.802;2022-11-15T04:33:08;9.50;99.90
20881;DHT22;10600;53.096;8.802;2022-11-15T04:34:08;9.60;99.90
20881;DHT22;10600;53.096;8.802;2022-11-15T04:35:09;9.60;99.90
20881;DHT22;10600;53.096;8.802;2022-11-15T04:36:10;9.60;99.90
20881;DHT22;10600;53.096;8.802;2022-11-15T04:37:29;9.60;99.90
20881;DHT22;10600;53.096;8.802;2022-11-15T04:38:30;9.60;99.90
20881;DHT22;10600;53.096;8.802;2022-11-15T04:39:30;9.60;99.90
20881;DHT22;10600;53.096;8.802;2022-11-15T04:40:31;9.60;99.90
20881;DHT22;10600;53.096;8.802;2022-11-15T04:41:32;9.60;99.90
20881;DHT22;10600;53.096;8.802;2022-11-15T04:42:32;9.60;99.90
20881;DHT22;10600;53.096;8.802;2022-11-15T04:43:33;9.60;99.90
20881;DHT22;10600;53.096;8.802;2022-11-15T04:44:34;9.60;99.90
20881;DHT22;10600;53.096;8.802;2022-11-15T04:45:35;9.60;99.90
20881;DHT22;10600;53.096;8.802;2022-11-15T04:46:35;9.70;99.90
20881;DHT22;10600;53.096;8.802;2022-11-15T04:47:36;9.70;99.90
20881;DHT22;10600;53.096;8.802;2022-11-15T04:48:37;9.70;99.90
20881;DHT22;10600;53.096;8.802;2022-11-15T04:49:37;9.70;99.90
20881;DHT22;10600;53.096;8.802;2022-11-15T04:50:38;9.80;99.90
20881;DHT22;10600;53.096;8.802;2022-11-15T04:51:39;9.70;99.90
20881;DHT22;10600;53.096;8.802;2022-11-15T04:52:44;9.80;99.90
20881;DHT22;10600;53.096;8.802;2022-11-15T04:53:49;9.80;99.90
20881;DHT22;10600;53.096;8.802;2022-11-15T04:54:50;9.80;99.90
20881;DHT22;10600;53.096;8.802;2022-11-15T04:55:51;9.80;99.90
20881;DHT22;10600;53.096;8.802;2022-11-15T04:56:51;9.80;99.90
20881;DHT22;10600;53.096;8.802;2022-11-15T04:58:02;9.90;99.90
20881;DHT22;10600;53.096;8.802;2022-11-15T04:59:02;9.80;99.90
20881;DHT22;10600;53.096;8.802;2022-11-15T05:00:08;9.90;99.90
20881;DHT22;10600;53.096;8.802;2022-11-15T05:01:11;9.80;99.90
20881;DHT22;10600;53.096;8.802;2022-11-15T05:02:14;9.90;99.90
20881;DHT22;10600;53.096;8.802;2022-11-15T05:03:15;9.90;99.90
20881;DHT22;10600;53.096;8.802;2022-11-15T05:04:34;9.90;99.90
20881;DHT22;10600;53.096;8.802;2022-11-15T05:05:35;9.90;99.90
20881;DHT22;10600;53.096;8.802;2022-11-15T05:06:36;9.90;99.90
20881;DHT22;10600;53.096;8.802;2022-11-15T05:07:36;9.90;99.90
20881;DHT22;10600;53.096;8.802;2022-11-15T05:08:37;9.90;99.90
20881;DHT22;10600;53.096;8.802;2022-11-15T05:09:37;9.90;99.90
20881;DHT22;10600;53.096;8.802;2022-11-15T05:10:38;9.90;99.90
20881;DHT22;10600;53.096;8.802;2022-11-15T05:11:39;10.00;99.90
20881;DHT22;10600;53.096;8.802;2022-11-15T05:12:40;10.00;99.90
20881;DHT22;10600;53.096;8.802;2022-11-15T05:13:43;10.00;99.90
20881;DHT22;10600;53.096;8.802;2022-11-15T05:14:44;10.00;99.90
20881;DHT22;10600;53.096;8.802;2022-11-15T05:15:44;10.00;99.90
20881;DHT22;10600;53.096;8.802;2022-11-15T05:16:45;10.00;99.90
20881;DHT22;10600;53.096;8.802;2022-11-15T05:17:46;10.00;99.90
20881;DHT22;10600;53.096;8.802;2022-11-15T05:18:46;10.00;99.90
20881;DHT22;10600;53.096;8.802;2022-11-15T05:19:47;10.00;99.90
20881;DHT22;10600;53.096;8.802;2022-11-15T05:20:48;10.00;99.90
20881;DHT22;10600;53.096;8.802;2022-11-15T05:21:48;10.10;99.90
20881;DHT22;10600;53.096;8.802;2022-11-15T05:22:49;10.00;99.90
20881;DHT22;10600;53.096;8.802;2022-11-15T05:23:49;10.00;99.90
20881;DHT22;10600;53.096;8.802;2022-11-15T05:24:50;10.00;99.90
20881;DHT22;10600;53.096;8.802;2022-11-15T05:25:51;10.10;99.90
20881;DHT22;10600;53.096;8.802;2022-11-15T05:26:51;10.10;99.90
20881;DHT22;10600;53.096;8.802;2022-11-15T05:27:52;10.10;99.90
20881;DHT22;10600;53.096;8.802;2022-11-15T05:28:57;10.10;99.90
20881;DHT22;10600;53.096;8.802;2022-11-15T05:29:58;10.10;99.90
20881;DHT22;10600;53.096;8.802;2022-11-15T05:31:02;10.10;99.90
20881;DHT22;10600;53.096;8.802;2022-11-15T05:32:09;10.10;99.90
20881;DHT22;10600;53.096;8.802;2022-11-15T05:33:10;10.10;99.90
20881;DHT22;10600;53.096;8.802;2022-11-15T05:34:11;10.10;99.90
20881;DHT22;10600;53.096;8.802;2022-11-15T05:35:18;10.10;99.90
20881;DHT22;10600;53.096;8.802;2022-11-15T05:36:29;10.20;99.90
20881;DHT22;10600;53.096;8.802;2022-11-15T05:37:31;10.20;99.90
20881;DHT22;10600;53.096;8.802;2022-11-15T05:38:32;10.20;99.90
20881;DHT22;10600;53.096;8.802;2022-11-15T05:39:33;10.20;99.90
20881;DHT22;10600;53.096;8.802;2022-11-15T05:40:34;10.20;99.90
20881;DHT22;10600;53.096;8.802;2022-11-15T05:41:54;10.20;99.90
20881;DHT22;10600;53.096;8.802;2022-11-15T05:42:55;10.20;99.90
20881;DHT22;10600;53.096;8.802;2022-11-15T05:43:56;10.20;99.90
20881;DHT22;10600;53.096;8.802;2022-11-15T05:44:58;10.20;99.90
20881;DHT22;10600;53.096;8.802;2022-11-15T05:46:00;10.20;99.90
20881;DHT22;10600;53.096;8.802;2022-11-15T05:47:02;10.20;99.90
20881;DHT22;10600;53.096;8.802;2022-11-15T05:48:07;10.20;99.90
20881;DHT22;10600;53.096;8.802;2022-11-15T05:49:12;10.20;99.90
20881;DHT22;10600;53.096;8.802;2022-11-15T05:50:14;10.20;99.90
20881;DHT22;10600;53.096;8.802;2022-11-15T05:51:17;10.20;99.90
20881;DHT22;10600;53.096;8.802;2022-11-15T05:52:23;10.20;99.90
20881;DHT22;10600;53.096;8.802;2022-11-15T05:53:26;10.20;99.90
20881;DHT22;10600;53.096;8.802;2022-11-15T05:54:27;10.20;99.90
20881;DHT22;10600;53.096;8.802;2022-11-15T05:55:27;10.20;99.90
20881;DHT22;10600;53.096;8.802;2022-11-15T05:56:28;10.20;99.90
20881;DHT22;10600;53.096;8.802;2022-11-15T05:57:29;10.20;99.90
20881;DHT22;10600;53.096;8.802;2022-11-15T05:58:32;10.20;99.90
20881;DHT22;10600;53.096;8.802;2022-11-15T05:59:33;10.20;99.90
20881;DHT22;10600;53.096;8.802;2022-11-15T06:00:35;10.20;99.90
20881;DHT22;10600;53.096;8.802;2022-11-15T06:01:35;10.20;99.90
20881;DHT22;10600;53.096;8.802;2022-11-15T06:02:36;10.20;99.90
20881;DHT22;10600;53.096;8.802;2022-11-15T06:03:37;10.20;99.90
20881;DHT22;10600;53.096;8.802;2022-11-15T06:04:37;10.20;99.90
20881;DHT22;10600;53.096;8.802;2022-11-15T06:05:38;10.20;99.90
20881;DHT22;10600;53.096;8.802;2022-11-15T06:06:38;10.20;99.90
20881;DHT22;10600;53.096;8.802;2022-11-15T06:07:39;10.20;99.90
20881;DHT22;10600;53.096;8.802;2022-11-15T06:08:40;10.30;99.90
20881;DHT22;10600;53.096;8.802;2022-11-15T06:09:40;10.30;99.90
20881;DHT22;10600;53.096;8.802;2022-11-15T06:10:41;10.30;99.90
20881;DHT22;10600;53.096;8.802;2022-11-15T06:11:42;10.30;99.90
20881;DHT22;10600;53.096;8.802;2022-11-15T06:12:42;10.30;99.90
20881;DHT22;10600;53.096;8.802;2022-11-15T06:13:43;10.30;99.90
20881;DHT22;10600;53.096;8.802;2022-11-15T06:14:44;10.30;99.90
20881;DHT22;10600;53.096;8.802;2022-11-15T06:15:44;10.30;99.90
20881;DHT22;10600;53.096;8.802;2022-11-15T06:16:45;10.30;99.90
20881;DHT22;10600;53.096;8.802;2022-11-15T06:17:46;10.30;99.90
20881;DHT22;10600;53.096;8.802;2022-11-15T06:18:46;10.40;99.90
20881;DHT22;10600;53.096;8.802;2022-11-15T06:19:47;10.40;99.90
20881;DHT22;10600;53.096;8.802;2022-11-15T06:20:48;10.40;99.90
20881;DHT22;10600;53.096;8.802;2022-11-15T06:21:48;10.40;99.90
20881;DHT22;10600;53.096;8.802;2022-11-15T06:22:49;10.40;99.90
20881;DHT22;10600;53.096;8.802;2022-11-15T06:23:50;10.40;99.90
20881;DHT22;10600;53.096;8.802;2022-11-15T06:24:50;10.40;99.90
20881;DHT22;10600;53.096;8.802;2022-11-15T06:25:51;10.40;99.90
20881;DHT22;10600;53.096;8.802;2022-11-15T06:26:51;10.40;99.90
20881;DHT22;10600;53.096;8.802;2022-11-15T06:27:53;10.40;99.90
20881;DHT22;10600;53.096;8.802;2022-11-15T06:28:54;10.40;99.90
20881;DHT22;10600;53.096;8.802;2022-11-15T06:29:57;10.40;99.90
20881;DHT22;10600;53.096;8.802;2022-11-15T06:32:05;10.40;99.90
20881;DHT22;10600;53.096;8.802;2022-11-15T06:33:06;10.40;99.90
20881;DHT22;10600;53.096;8.802;2022-11-15T06:34:06;10.40;99.90
20881;DHT22;10600;53.096;8.802;2022-11-15T06:35:07;10.40;99.90
20881;DHT22;10600;53.096;8.802;2022-11-15T06:36:10;10.40;99.90
20881;DHT22;10600;53.096;8.802;2022-11-15T06:37:13;10.40;99.90
20881;DHT22;10600;53.096;8.802;2022-11-15T06:38:14;10.40;99.90
20881;DHT22;10600;53.096;8.802;2022-11-15T06:39:15;10.40;99.90
20881;DHT22;10600;53.096;8.802;2022-11-15T06:40:15;10.40;99.90
20881;DHT22;10600;53.096;8.802;2022-11-15T06:41:16;10.40;99.90
20881;DHT22;10600;53.096;8.802;2022-11-15T06:42:18;10.40;99.90
20881;DHT22;10600;53.096;8.802;2022-11-15T06:43:18;10.40;99.90
20881;DHT22;10600;53.096;8.802;2022-11-15T06:44:19;10.40;99.90
20881;DHT22;10600;53.096;8.802;2022-11-15T06:45:19;10.40;99.90
20881;DHT22;10600;53.096;8.802;2022-11-15T06:46:20;10.40;99.90
20881;DHT22;10600;53.096;8.802;2022-11-15T06:47:21;10.40;99.90
20881;DHT22;10600;53.096;8.802;2022-11-15T06:48:21;10.40;99.90
20881;DHT22;10600;53.096;8.802;2022-11-15T06:49:22;10.40;99.90
20881;DHT22;10600;53.096;8.802;2022-11-15T06:50:23;10.40;99.90
20881;DHT22;10600;53.096;8.802;2022-11-15T06:51:24;10.40;99.90
20881;DHT22;10600;53.096;8.802;2022-11-15T06:52:25;10.40;99.90
20881;DHT22;10600;53.096;8.802;2022-11-15T06:53:26;10.40;99.90
20881;DHT22;10600;53.096;8.802;2022-11-15T06:54:27;10.40;99.90
20881;DHT22;10600;53.096;8.802;2022-11-15T06:55:27;10.50;99.90
20881;DHT22;10600;53.096;8.802;2022-11-15T06:56:28;10.50;99.90
20881;DHT22;10600;53.096;8.802;2022-11-15T06:57:29;10.50;99.90
20881;DHT22;10600;53.096;8.802;2022-11-15T06:58:29;10.50;99.90
20881;DHT22;10600;53.096;8.802;2022-11-15T06:59:30;10.50;99.90
20881;DHT22;10600;53.096;8.802;2022-11-15T07:00:31;10.50;99.90
20881;DHT22;10600;53.096;8.802;2022-11-15T07:01:32;10.50;99.90
20881;DHT22;10600;53.096;8.802;2022-11-15T07:02:32;10.50;99.90
20881;DHT22;10600;53.096;8.802;2022-11-15T07:03:38;10.50;99.90
20881;DHT22;10600;53.096;8.802;2022-11-15T07:04:39;10.60;99.90
20881;DHT22;10600;53.096;8.802;2022-11-15T07:05:39;10.60;99.90
20881;DHT22;10600;53.096;8.802;2022-11-15T07:06:40;10.60;99.90
20881;DHT22;10600;53.096;8.802;2022-11-15T07:07:41;10.60;99.90
20881;DHT22;10600;53.096;8.802;2022-11-15T07:08:41;10.60;99.90
20881;DHT22;10600;53.096;8.802;2022-11-15T07:09:42;10.60;99.90